sensor_id;sensor_type;location;lat;lon;timestamp;pressure;altitude;pressure_sealevel;temperature;humidity
48053;BME280;33824;51.600;5.718;2023-03-26T00:01:01;100564.16;;;9.45;100.00
48053;BME280;33824;51.600;5.718;2023-03-26T00:03:36;100558.84;;;9.45;100.00
48053;BME280;33824;51.600;5.718;2023-03-26T00:06:14;100560.41;;;9.31;100.00
48053;BME280;33824;51.600;5.718;2023-03-26T00:08:41;100559.75;;;9.29;100.00
48053;BME280;33824;51.600;5.718;2023-03-26T00:11:09;100559.94;;;9.28;100.00
48053;BME280;33824;51.600;5.718;2023-03-26T00:13:35;100553.94;;;9.26;100.00
48053;BME280;33824;51.600;5.718;2023-03-26T00:16:01;100557.09;;;9.21;100.00
48053;BME280;33824;51.600;5.718;2023-03-26T00:18:28;100556.31;;;9.21;100.00
48053;BME280;33824;51.600;5.718;2023-03-26T00:21:02;100563.78;;;9.17;100.00
48053;BME280;33824;51.600;5.718;2023-03-26T00:23:30;100561.94;;;9.18;100.00
48053;BME280;33824;51.600;5.718;2023-03-26T00:25:56;100560.63;;;9.13;100.00
48053;BME280;33824;51.600;5.718;2023-03-26T00:28:22;100555.84;;;9.09;100.00
48053;BME280;33824;51.600;5.718;2023-03-26T00:30:49;100555.53;;;9.04;100.00
48053;BME280;33824;51.600;5.718;2023-03-26T00:33:21;100560.34;;;9.00;100.00
48053;BME280;33824;51.600;5.718;2023-03-26T00:35:53;100547.06;;;8.92;100.00
48053;BME280;33824;51.600;5.718;2023-03-26T00:38:20;100547.91;;;8.93;100.00
48053;BME280;33824;51.600;5.718;2023-03-26T00:40:47;100542.75;;;8.91;100.00
48053;BME280;33824;51.600;5.718;2023-03-26T00:43:21;100540.94;;;8.84;100.00
48053;BME280;33824;51.600;5.718;2023-03-26T00:45:52;100538.31;;;8.76;100.00
48053;BME280;33824;51.600;5.718;2023-03-26T00:48:19;100534.81;;;8.75;100.00
48053;BME280;33824;51.600;5.718;2023-03-26T00:50:46;100534.31;;;8.72;100.00
48053;BME280;33824;51.600;5.718;2023-03-26T00:53:13;100531.50;;;8.65;100.00
48053;BME280;33824;51.600;5.718;2023-03-26T00:55:44;100530.69;;;8.56;100.00
48053;BME280;33824;51.600;5.718;2023-03-26T00:58:11;100523.75;;;8.55;100.00
48053;BME280;33824;51.600;5.718;2023-03-26T01:00:48;100531.03;;;8.45;100.00
48053;BME280;33824;51.600;5.718;2023-03-26T01:03:19;100529.56;;;8.43;100.00
48053;BME280;33824;51.600;5.718;2023-03-26T01:06:11;100519.28;;;8.40;100.00
48053;BME280;33824;51.600;5.718;2023-03-26T01:08:38;100523.91;;;8.38;100.00
48053;BME280;33824;51.600;5.718;2023-03-26T01:11:14;100530.88;;;8.31;100.00
48053;BME280;33824;51.600;5.718;2023-03-26T01:13:50;100510.31;;;8.33;100.00
48053;BME280;33824;51.600;5.718;2023-03-26T01:16:22;100506.97;;;8.31;100.00
48053;BME280;33824;51.600;5.718;2023-03-26T01:18:49;100503.16;;;8.33;100.00
48053;BME280;33824;51.600;5.718;2023-03-26T01:21:22;100501.16;;;8.35;100.00
48053;BME280;33824;51.600;5.718;2023-03-26T01:24:01;100499.34;;;8.44;100.00
48053;BME280;33824;51.600;5.718;2023-03-26T01:26:55;100496.34;;;8.47;100.00
48053;BME280;33824;51.600;5.718;2023-03-26T01:29:43;100488.72;;;8.52;100.00
48053;BME280;33824;51.600;5.718;2023-03-26T01:32:42;100477.41;;;8.50;100.00
48053;BME280;33824;51.600;5.718;2023-03-26T01:35:30;100471.75;;;8.45;100.00
48053;BME280;33824;51.600;5.718;2023-03-26T01:38:07;100465.63;;;8.44;100.00
48053;BME280;33824;51.600;5.718;2023-03-26T01:40:41;100465.63;;;8.44;100.00
48053;BME280;33824;51.600;5.718;2023-03-26T01:43:23;100463.81;;;8.37;100.00
48053;BME280;33824;51.600;5.718;2023-03-26T01:45:53;100464.63;;;8.45;100.00
48053;BME280;33824;51.600;5.718;2023-03-26T01:48:19;100450.00;;;8.49;100.00
48053;BME280;33824;51.600;5.718;2023-03-26T01:50:45;100444.03;;;8.55;100.00
48053;BME280;33824;51.600;5.718;2023-03-26T01:53:12;100445.34;;;8.59;100.00
48053;BME280;33824;51.600;5.718;2023-03-26T01:55:49;100454.81;;;8.54;100.00
48053;BME280;33824;51.600;5.718;2023-03-26T01:58:40;100452.66;;;8.49;100.00
48053;BME280;33824;51.600;5.718;2023-03-26T02:01:31;100448.19;;;8.34;100.00
48053;BME280;33824;51.600;5.718;2023-03-26T02:04:15;100441.72;;;8.28;100.00
48053;BME280;33824;51.600;5.718;2023-03-26T02:06:58;100443.72;;;8.18;100.00
48053;BME280;33824;51.600;5.718;2023-03-26T02:09:29;100432.44;;;8.16;100.00
48053;BME280;33824;51.600;5.718;2023-03-26T02:11:58;100433.63;;;8.13;100.00
48053;BME280;33824;51.600;5.718;2023-03-26T02:14:24;100429.28;;;8.12;100.00
48053;BME280;33824;51.600;5.718;2023-03-26T02:16:50;100426.16;;;8.09;100.00
48053;BME280;33824;51.600;5.718;2023-03-26T02:19:16;100422.00;;;8.06;100.00
48053;BME280;33824;51.600;5.718;2023-03-26T02:22:37;100419.53;;;7.89;100.00
48053;BME280;33824;51.600;5.718;2023-03-26T02:26:21;100416.03;;;7.80;100.00
48053;BME280;33824;51.600;5.718;2023-03-26T02:29:04;100405.75;;;7.85;100.00
48053;BME280;33824;51.600;5.718;2023-03-26T02:31:29;100408.25;;;7.87;100.00
48053;BME280;33824;51.600;5.718;2023-03-26T02:33:55;100407.22;;;7.88;100.00
48053;BME280;33824;51.600;5.718;2023-03-26T02:36:21;100396.63;;;7.88;100.00
48053;BME280;33824;51.600;5.718;2023-03-26T02:38:52;100395.63;;;7.89;100.00
48053;BME280;33824;51.600;5.718;2023-03-26T02:41:18;100385.84;;;7.89;100.00
48053;BME280;33824;51.600;5.718;2023-03-26T02:43:44;100391.16;;;7.89;100.00
48053;BME280;33824;51.600;5.718;2023-03-26T02:46:10;100384.19;;;7.88;100.00
48053;BME280;33824;51.600;5.718;2023-03-26T02:48:35;100380.53;;;7.89;100.00
48053;BME280;33824;51.600;5.718;2023-03-26T02:51:02;100382.34;;;7.89;100.00
48053;BME280;33824;51.600;5.718;2023-03-26T02:53:30;100377.22;;;7.87;100.00
48053;BME280;33824;51.600;5.718;2023-03-26T02:55:57;100372.22;;;7.84;100.00
48053;BME280;33824;51.600;5.718;2023-03-26T02:58:23;100368.78;;;7.84;100.00
48053;BME280;33824;51.600;5.718;2023-03-26T03:00:50;100365.44;;;7.82;100.00
48053;BME280;33824;51.600;5.718;2023-03-26T03:03:23;100365.94;;;7.77;100.00
48053;BME280;33824;51.600;5.718;2023-03-26T03:05:51;100367.44;;;7.80;100.00
48053;BME280;33824;51.600;5.718;2023-03-26T03:08:21;100360.13;;;7.73;100.00
48053;BME280;33824;51.600;5.718;2023-03-26T03:10:58;100353.50;;;7.69;100.00
48053;BME280;33824;51.600;5.718;2023-03-26T03:13:27;100355.16;;;7.79;100.00
48053;BME280;33824;51.600;5.718;2023-03-26T03:15:53;100345.19;;;7.81;100.00
48053;BME280;33824;51.600;5.718;2023-03-26T03:18:18;100340.56;;;7.83;100.00
48053;BME280;33824;51.600;5.718;2023-03-26T03:20:45;100335.25;;;7.83;100.00
48053;BME280;33824;51.600;5.718;2023-03-26T03:23:11;100334.28;;;7.84;100.00
48053;BME280;33824;51.600;5.718;2023-03-26T03:25:37;100324.31;;;7.86;100.00
48053;BME280;33824;51.600;5.718;2023-03-26T03:28:03;100318.66;;;7.89;100.00
48053;BME280;33824;51.600;5.718;2023-03-26T03:30:29;100317.66;;;7.90;100.00
48053;BME280;33824;51.600;5.718;2023-03-26T03:32:58;100315.50;;;7.93;100.00
48053;BME280;33824;51.600;5.718;2023-03-26T03:35:25;100319.47;;;7.97;100.00
48053;BME280;33824;51.600;5.718;2023-03-26T03:37:52;100311.00;;;8.02;100.00
48053;BME280;33824;51.600;5.718;2023-03-26T03:40:18;100307.31;;;8.03;100.00
48053;BME280;33824;51.600;5.718;2023-03-26T03:42:44;100310.31;;;8.08;100.00
48053;BME280;33824;51.600;5.718;2023-03-26T03:45:11;100304.47;;;8.12;100.00
48053;BME280;33824;51.600;5.718;2023-03-26T03:47:37;100297.84;;;8.16;100.00
48053;BME280;33824;51.600;5.718;2023-03-26T03:50:03;100296.66;;;8.19;100.00
48053;BME280;33824;51.600;5.718;2023-03-26T03:52:29;100295.31;;;8.23;100.00
48053;BME280;33824;51.600;5.718;2023-03-26T03:54:55;100300.13;;;8.28;100.00
48053;BME280;33824;51.600;5.718;2023-03-26T03:57:22;100284.34;;;8.34;100.00
48053;BME280;33824;51.600;5.718;2023-03-26T03:59:48;100287.66;;;8.36;100.00
48053;BME280;33824;51.600;5.718;2023-03-26T04:02:14;100291.44;;;8.42;100.00
48053;BME280;33824;51.600;5.718;2023-03-26T04:04:55;100286.59;;;8.45;100.00
48053;BME280;33824;51.600;5.718;2023-03-26T04:07:23;100273.78;;;8.49;100.00
48053;BME280;33824;51.600;5.718;2023-03-26T04:09:48;100280.63;;;8.51;100.00
48053;BME280;33824;51.600;5.718;2023-03-26T04:12:14;100273.28;;;8.53;100.00
48053;BME280;33824;51.600;5.718;2023-03-26T04:14:40;100276.41;;;8.57;100.00
48053;BME280;33824;51.600;5.718;2023-03-26T04:17:05;100276.41;;;8.57;100.00
48053;BME280;33824;51.600;5.718;2023-03-26T04:19:31;100269.47;;;8.56;100.00
48053;BME280;33824;51.600;5.718;2023-03-26T04:21:56;100267.44;;;8.58;100.00
48053;BME280;33824;51.600;5.718;2023-03-26T04:24:30;100260.66;;;8.55;100.00
48053;BME280;33824;51.600;5.718;2023-03-26T04:26:58;100258.84;;;8.56;100.00
48053;BME280;33824;51.600;5.718;2023-03-26T04:29:26;100253.34;;;8.57;100.00
48053;BME280;33824;51.600;5.718;2023-03-26T04:31:55;100253.16;;;8.59;100.00
48053;BME280;33824;51.600;5.718;2023-03-26T04:34:31;100255.16;;;8.57;100.00
48053;BME280;33824;51.600;5.718;2023-03-26T04:37:00;100248.34;;;8.62;100.00
48053;BME280;33824;51.600;5.718;2023-03-26T04:39:25;100245.31;;;8.65;100.00
48053;BME280;33824;51.600;5.718;2023-03-26T04:41:55;100245.78;;;8.69;100.00
48053;BME280;33824;51.600;5.718;2023-03-26T04:44:22;100231.31;;;8.72;100.00
48053;BME280;33824;51.600;5.718;2023-03-26T04:46:49;100234.44;;;8.75;100.00
48053;BME280;33824;51.600;5.718;2023-03-26T04:49:18;100229.94;;;8.76;100.00
48053;BME280;33824;51.600;5.718;2023-03-26T04:51:43;100214.00;;;8.76;100.00
48053;BME280;33824;51.600;5.718;2023-03-26T04:54:12;100216.84;;;8.74;100.00
48053;BME280;33824;51.600;5.718;2023-03-26T04:56:58;100218.56;;;8.67;100.00
48053;BME280;33824;51.600;5.718;2023-03-26T04:59:27;100206.69;;;8.78;100.00
48053;BME280;33824;51.600;5.718;2023-03-26T05:01:57;100203.84;;;8.79;100.00
48053;BME280;33824;51.600;5.718;2023-03-26T05:04:24;100191.84;;;8.83;100.00
48053;BME280;33824;51.600;5.718;2023-03-26T05:06:55;100193.03;;;8.81;100.00
48053;BME280;33824;51.600;5.718;2023-03-26T05:09:26;100179.91;;;8.79;100.00
48053;BME280;33824;51.600;5.718;2023-03-26T05:11:51;100180.13;;;8.78;100.00
48053;BME280;33824;51.600;5.718;2023-03-26T05:14:18;100183.47;;;8.72;100.00
48053;BME280;33824;51.600;5.718;2023-03-26T05:16:45;100181.38;;;8.67;100.00
48053;BME280;33824;51.600;5.718;2023-03-26T05:19:12;100171.06;;;8.64;100.00
48053;BME280;33824;51.600;5.718;2023-03-26T05:21:38;100173.91;;;8.62;100.00
48053;BME280;33824;51.600;5.718;2023-03-26T05:24:04;100162.63;;;8.60;100.00
48053;BME280;33824;51.600;5.718;2023-03-26T05:26:31;100165.28;;;8.60;100.00
48053;BME280;33824;51.600;5.718;2023-03-26T05:28:57;100170.44;;;8.62;100.00
48053;BME280;33824;51.600;5.718;2023-03-26T05:31:23;100157.16;;;8.62;100.00
48053;BME280;33824;51.600;5.718;2023-03-26T05:33:51;100162.47;;;8.62;100.00
48053;BME280;33824;51.600;5.718;2023-03-26T05:36:17;100149.16;;;8.62;100.00
48053;BME280;33824;51.600;5.718;2023-03-26T05:38:43;100151.66;;;8.63;100.00
48053;BME280;33824;51.600;5.718;2023-03-26T05:41:12;100152.47;;;8.64;100.00
48053;BME280;33824;51.600;5.718;2023-03-26T05:43:38;100143.19;;;8.60;100.00
48053;BME280;33824;51.600;5.718;2023-03-26T05:46:03;100138.06;;;8.58;100.00
48053;BME280;33824;51.600;5.718;2023-03-26T05:48:29;100134.22;;;8.61;100.00
48053;BME280;33824;51.600;5.718;2023-03-26T05:50:57;100134.41;;;8.59;100.00
48053;BME280;33824;51.600;5.718;2023-03-26T05:53:24;100122.13;;;8.58;100.00
48053;BME280;33824;51.600;5.718;2023-03-26T05:55:49;100117.28;;;8.62;100.00
48053;BME280;33824;51.600;5.718;2023-03-26T05:58:20;100122.22;;;8.65;100.00
48053;BME280;33824;51.600;5.718;2023-03-26T06:00:46;100116.56;;;8.68;100.00
48053;BME280;33824;51.600;5.718;2023-03-26T06:03:13;100112.91;;;8.69;100.00
48053;BME280;33824;51.600;5.718;2023-03-26T06:05:40;100108.41;;;8.70;100.00
48053;BME280;33824;51.600;5.718;2023-03-26T06:08:07;100102.94;;;8.71;100.00
48053;BME280;33824;51.600;5.718;2023-03-26T06:10:36;100108.41;;;8.70;100.00
48053;BME280;33824;51.600;5.718;2023-03-26T06:13:03;100101.72;;;8.74;100.00
48053;BME280;33824;51.600;5.718;2023-03-26T06:15:28;100104.19;;;8.75;100.00
48053;BME280;33824;51.600;5.718;2023-03-26T06:17:56;100093.22;;;8.78;100.00
48053;BME280;33824;51.600;5.718;2023-03-26T06:20:21;100095.06;;;8.78;100.00
48053;BME280;33824;51.600;5.718;2023-03-26T06:22:47;100090.00;;;8.83;100.00
48053;BME280;33824;51.600;5.718;2023-03-26T06:25:12;100089.28;;;8.89;100.00
48053;BME280;33824;51.600;5.718;2023-03-26T06:27:38;100085.28;;;8.93;100.00
48053;BME280;33824;51.600;5.718;2023-03-26T06:30:03;100083.06;;;8.96;100.00
48053;BME280;33824;51.600;5.718;2023-03-26T06:32:30;100079.22;;;8.99;100.00
48053;BME280;33824;51.600;5.718;2023-03-26T06:34:55;100083.53;;;9.00;100.00
48053;BME280;33824;51.600;5.718;2023-03-26T06:37:21;100082.16;;;9.04;100.00
48053;BME280;33824;51.600;5.718;2023-03-26T06:39:46;100082.78;;;9.06;100.00
48053;BME280;33824;51.600;5.718;2023-03-26T06:42:12;100081.63;;;9.08;100.00
48053;BME280;33824;51.600;5.718;2023-03-26T06:44:37;100081.25;;;9.11;100.00
48053;BME280;33824;51.600;5.718;2023-03-26T06:47:03;100074.56;;;9.15;100.00
48053;BME280;33824;51.600;5.718;2023-03-26T06:49:28;100079.13;;;9.22;100.00
48053;BME280;33824;51.600;5.718;2023-03-26T06:51:54;100078.13;;;9.23;100.00
48053;BME280;33824;51.600;5.718;2023-03-26T06:54:20;100079.25;;;9.28;100.00
48053;BME280;33824;51.600;5.718;2023-03-26T06:56:45;100077.84;;;9.32;100.00
48053;BME280;33824;51.600;5.718;2023-03-26T06:59:11;100076.66;;;9.35;100.00
48053;BME280;33824;51.600;5.718;2023-03-26T07:01:37;100075.09;;;9.40;100.00
48053;BME280;33824;51.600;5.718;2023-03-26T07:04:02;100071.69;;;9.46;100.00
48053;BME280;33824;51.600;5.718;2023-03-26T07:06:28;100077.47;;;9.50;100.00
48053;BME280;33824;51.600;5.718;2023-03-26T07:08:53;100075.44;;;9.52;100.00
48053;BME280;33824;51.600;5.718;2023-03-26T07:11:20;100067.06;;;9.55;100.00
48053;BME280;33824;51.600;5.718;2023-03-26T07:13:49;100073.22;;;9.55;100.00
48053;BME280;33824;51.600;5.718;2023-03-26T07:16:15;100070.31;;;9.50;100.00
48053;BME280;33824;51.600;5.718;2023-03-26T07:18:41;100069.22;;;9.45;100.00
48053;BME280;33824;51.600;5.718;2023-03-26T07:21:07;100059.94;;;9.41;100.00
48053;BME280;33824;51.600;5.718;2023-03-26T07:23:33;100063.16;;;9.36;100.00
48053;BME280;33824;51.600;5.718;2023-03-26T07:26:01;100066.56;;;9.30;100.00
48053;BME280;33824;51.600;5.718;2023-03-26T07:28:59;100061.44;;;9.14;100.00
48053;BME280;33824;51.600;5.718;2023-03-26T07:31:34;100057.78;;;9.15;100.00
48053;BME280;33824;51.600;5.718;2023-03-26T07:34:25;100051.72;;;9.06;100.00
48053;BME280;33824;51.600;5.718;2023-03-26T07:37:04;100059.88;;;9.05;100.00
48053;BME280;33824;51.600;5.718;2023-03-26T07:39:39;100054.81;;;9.10;100.00
48053;BME280;33824;51.600;5.718;2023-03-26T07:42:45;100049.59;;;9.02;100.00
48053;BME280;33824;51.600;5.718;2023-03-26T07:45:32;100042.28;;;9.04;100.00
48053;BME280;33824;51.600;5.718;2023-03-26T07:48:02;100042.72;;;9.22;100.00
48053;BME280;33824;51.600;5.718;2023-03-26T07:50:28;100045.66;;;9.27;100.00
48053;BME280;33824;51.600;5.718;2023-03-26T07:52:54;100044.91;;;9.33;100.00
48053;BME280;33824;51.600;5.718;2023-03-26T07:55:20;100039.88;;;9.38;100.00
48053;BME280;33824;51.600;5.718;2023-03-26T08:00:38;100050.06;;;9.35;100.00
48053;BME280;33824;51.600;5.718;2023-03-26T08:05:56;100049.69;;;9.38;100.00
48053;BME280;33824;51.600;5.718;2023-03-26T08:08:34;100047.94;;;9.45;100.00
48053;BME280;33824;51.600;5.718;2023-03-26T08:11:32;100046.91;;;9.46;100.00
48053;BME280;33824;51.600;5.718;2023-03-26T08:22:11;100052.03;;;9.47;100.00
48053;BME280;33824;51.600;5.718;2023-03-26T08:27:40;100038.06;;;9.24;100.00
48053;BME280;33824;51.600;5.718;2023-03-26T08:30:19;100035.75;;;9.21;100.00
48053;BME280;33824;51.600;5.718;2023-03-26T08:32:54;100040.72;;;9.24;100.00
48053;BME280;33824;51.600;5.718;2023-03-26T08:35:20;100035.09;;;9.34;100.00
48053;BME280;33824;51.600;5.718;2023-03-26T08:37:46;100033.28;;;9.34;100.00
48053;BME280;33824;51.600;5.718;2023-03-26T08:40:16;100036.09;;;9.33;100.00
48053;BME280;33824;51.600;5.718;2023-03-26T08:48:59;100033.53;;;9.25;100.00
48053;BME280;33824;51.600;5.718;2023-03-26T08:57:28;100029.97;;;9.03;100.00
48053;BME280;33824;51.600;5.718;2023-03-26T09:03:28;100022.28;;;9.08;100.00
48053;BME280;33824;51.600;5.718;2023-03-26T09:06:05;100024.56;;;9.11;100.00
48053;BME280;33824;51.600;5.718;2023-03-26T09:14:44;100021.81;;;9.19;100.00
48053;BME280;33824;51.600;5.718;2023-03-26T09:17:34;100015.28;;;9.22;100.00
48053;BME280;33824;51.600;5.718;2023-03-26T09:26:00;100016.28;;;9.50;100.00
48053;BME280;33824;51.600;5.718;2023-03-26T09:29:02;100013.59;;;9.50;100.00
48053;BME280;33824;51.600;5.718;2023-03-26T09:36:53;100002.88;;;9.79;100.00
48053;BME280;33824;51.600;5.718;2023-03-26T09:42:16;100004.59;;;9.87;100.00
48053;BME280;33824;51.600;5.718;2023-03-26T09:48:31;100007.81;;;9.82;100.00
48053;BME280;33824;51.600;5.718;2023-03-26T09:54:04;100003.06;;;9.99;100.00
48053;BME280;33824;51.600;5.718;2023-03-26T09:56:51;100003.38;;;10.10;100.00
48053;BME280;33824;51.600;5.718;2023-03-26T10:02:38;100003.78;;;10.07;100.00
48053;BME280;33824;51.600;5.718;2023-03-26T10:12:53;100002.47;;;9.82;100.00
48053;BME280;33824;51.600;5.718;2023-03-26T10:18:54;100007.78;;;9.61;100.00
48053;BME280;33824;51.600;5.718;2023-03-26T10:21:35;100007.69;;;9.69;100.00
48053;BME280;33824;51.600;5.718;2023-03-26T10:26:53;100008.63;;;9.83;100.00
48053;BME280;33824;51.600;5.718;2023-03-26T10:29:49;100011.25;;;9.97;100.00
48053;BME280;33824;51.600;5.718;2023-03-26T10:32:29;100009.66;;;10.03;100.00
48053;BME280;33824;51.600;5.718;2023-03-26T10:38:07;100012.63;;;9.93;100.00
48053;BME280;33824;51.600;5.718;2023-03-26T10:46:28;100020.31;;;10.03;100.00
48053;BME280;33824;51.600;5.718;2023-03-26T10:51:58;100020.66;;;10.15;100.00
48053;BME280;33824;51.600;5.718;2023-03-26T10:57:51;100009.47;;;10.04;100.00
48053;BME280;33824;51.600;5.718;2023-03-26T11:00:20;100018.00;;;10.15;100.00
48053;BME280;33824;51.600;5.718;2023-03-26T11:16:26;100022.88;;;9.75;100.00
48053;BME280;33824;51.600;5.718;2023-03-26T11:19:00;100029.94;;;9.83;100.00
48053;BME280;33824;51.600;5.718;2023-03-26T11:21:42;100030.19;;;9.88;100.00
48053;BME280;33824;51.600;5.718;2023-03-26T11:27:32;100030.69;;;9.77;100.00
48053;BME280;33824;51.600;5.718;2023-03-26T11:30:10;100032.53;;;9.76;100.00
48053;BME280;33824;51.600;5.718;2023-03-26T11:32:45;100037.03;;;9.76;100.00
48053;BME280;33824;51.600;5.718;2023-03-26T11:35:19;100029.97;;;9.68;100.00
48053;BME280;33824;51.600;5.718;2023-03-26T11:37:52;100037.53;;;9.64;100.00
48053;BME280;33824;51.600;5.718;2023-03-26T11:40:29;100043.06;;;9.48;100.00
48053;BME280;33824;51.600;5.718;2023-03-26T11:43:01;100040.47;;;9.55;100.00
48053;BME280;33824;51.600;5.718;2023-03-26T11:45:30;100042.06;;;9.49;100.00
48053;BME280;33824;51.600;5.718;2023-03-26T11:50:31;100048.22;;;9.35;100.00
48053;BME280;33824;51.600;5.718;2023-03-26T11:53:08;100049.78;;;9.30;100.00
48053;BME280;33824;51.600;5.718;2023-03-26T11:55:41;100055.94;;;9.30;100.00
48053;BME280;33824;51.600;5.718;2023-03-26T11:58:21;100054.81;;;9.25;100.00
48053;BME280;33824;51.600;5.718;2023-03-26T12:00:48;100057.97;;;9.28;100.00
48053;BME280;33824;51.600;5.718;2023-03-26T12:03:17;100050.06;;;9.20;100.00
48053;BME280;33824;51.600;5.718;2023-03-26T12:05:57;100059.50;;;9.08;100.00
48053;BME280;33824;51.600;5.718;2023-03-26T12:08:33;100057.41;;;9.18;100.00
48053;BME280;33824;51.600;5.718;2023-03-26T12:11:07;100057.13;;;9.28;100.00
48053;BME280;33824;51.600;5.718;2023-03-26T12:13:39;100055.06;;;9.44;100.00
48053;BME280;33824;51.600;5.718;2023-03-26T12:16:24;100051.59;;;9.29;100.00
48053;BME280;33824;51.600;5.718;2023-03-26T12:18:58;100056.56;;;9.32;100.00
48053;BME280;33824;51.600;5.718;2023-03-26T12:21:24;100057.28;;;9.41;100.00
48053;BME280;33824;51.600;5.718;2023-03-26T12:23:57;100060.59;;;9.43;100.00
48053;BME280;33824;51.600;5.718;2023-03-26T12:26:39;100060.78;;;9.41;100.00
48053;BME280;33824;51.600;5.718;2023-03-26T12:29:16;100068.28;;;9.52;100.00
48053;BME280;33824;51.600;5.718;2023-03-26T12:32:02;100061.41;;;9.58;100.00
48053;BME280;33824;51.600;5.718;2023-03-26T12:34:32;100058.22;;;9.84;100.00
48053;BME280;33824;51.600;5.718;2023-03-26T12:36:59;100064.16;;;9.86;100.00
48053;BME280;33824;51.600;5.718;2023-03-26T12:39:40;100065.38;;;9.83;100.00
48053;BME280;33824;51.600;5.718;2023-03-26T12:42:43;100066.66;;;9.87;100.00
48053;BME280;33824;51.600;5.718;2023-03-26T12:45:15;100063.44;;;9.92;100.00
48053;BME280;33824;51.600;5.718;2023-03-26T12:47:45;100064.16;;;9.86;100.00
48053;BME280;33824;51.600;5.718;2023-03-26T12:50:13;100066.38;;;9.82;100.00
48053;BME280;33824;51.600;5.718;2023-03-26T12:52:54;100074.69;;;9.73;100.00
48053;BME280;33824;51.600;5.718;2023-03-26T12:55:41;100075.50;;;9.73;100.00
48053;BME280;33824;51.600;5.718;2023-03-26T13:01:18;100075.25;;;9.89;100.00
48053;BME280;33824;51.600;5.718;2023-03-26T13:04:25;100079.59;;;9.90;100.00
48053;BME280;33824;51.600;5.718;2023-03-26T13:07:21;100070.44;;;9.78;100.00
48053;BME280;33824;51.600;5.718;2023-03-26T13:12:46;100089.22;;;9.91;100.00
48053;BME280;33824;51.600;5.718;2023-03-26T13:15:20;100076.69;;;9.85;100.00
48053;BME280;33824;51.600;5.718;2023-03-26T13:32:38;100110.69;;;9.25;100.00
48053;BME280;33824;51.600;5.718;2023-03-26T13:36:32;100104.63;;;9.16;100.00
48053;BME280;33824;51.600;5.718;2023-03-26T13:41:43;100111.03;;;9.07;100.00
48053;BME280;33824;51.600;5.718;2023-03-26T13:44:38;100118.56;;;9.03;100.00
48053;BME280;33824;51.600;5.718;2023-03-26T13:47:09;100118.28;;;8.98;100.00
48053;BME280;33824;51.600;5.718;2023-03-26T13:49:42;100117.66;;;9.11;100.00
48053;BME280;33824;51.600;5.718;2023-03-26T13:52:12;100111.88;;;9.22;100.00
48053;BME280;33824;51.600;5.718;2023-03-26T13:54:45;100122.06;;;9.04;100.00
48053;BME280;33824;51.600;5.718;2023-03-26T14:00:18;100127.72;;;9.01;100.00
48053;BME280;33824;51.600;5.718;2023-03-26T14:02:54;100126.16;;;9.06;100.00
48053;BME280;33824;51.600;5.718;2023-03-26T14:05:51;100127.84;;;9.22;100.00
48053;BME280;33824;51.600;5.718;2023-03-26T14:08:26;100137.09;;;9.26;100.00
48053;BME280;33824;51.600;5.718;2023-03-26T14:11:02;100132.06;;;9.31;100.00
48053;BME280;33824;51.600;5.718;2023-03-26T14:13:54;100140.22;;;9.15;100.00
48053;BME280;33824;51.600;5.718;2023-03-26T14:16:25;100149.25;;;8.91;100.00
48053;BME280;33824;51.600;5.718;2023-03-26T14:22:09;100147.50;;;8.84;100.00
48053;BME280;33824;51.600;5.718;2023-03-26T14:25:19;100165.47;;;8.59;100.00
48053;BME280;33824;51.600;5.718;2023-03-26T14:41:45;100199.31;;;8.03;100.00
48053;BME280;33824;51.600;5.718;2023-03-26T14:47:19;100192.44;;;8.17;100.00
48053;BME280;33824;51.600;5.718;2023-03-26T15:09:53;100226.06;;;8.41;100.00
48053;BME280;33824;51.600;5.718;2023-03-26T15:12:43;100237.31;;;8.43;100.00
48053;BME280;33824;51.600;5.718;2023-03-26T15:15:59;100234.56;;;8.59;100.00
48053;BME280;33824;51.600;5.718;2023-03-26T15:21:58;100245.06;;;8.75;100.00
48053;BME280;33824;51.600;5.718;2023-03-26T15:24:42;100241.25;;;8.78;100.00
48053;BME280;33824;51.600;5.718;2023-03-26T15:30:21;100267.22;;;8.90;100.00
48053;BME280;33824;51.600;5.718;2023-03-26T15:38:35;100274.47;;;9.04;100.00
48053;BME280;33824;51.600;5.718;2023-03-26T15:41:24;100282.84;;;8.93;97.80
48053;BME280;33824;51.600;5.718;2023-03-26T15:49:10;100290.53;;;8.88;94.12
48053;BME280;33824;51.600;5.718;2023-03-26T15:52:05;100303.06;;;8.72;90.61
48053;BME280;33824;51.600;5.718;2023-03-26T15:54:54;100306.19;;;8.75;92.11
48053;BME280;33824;51.600;5.718;2023-03-26T16:00:21;100319.16;;;8.78;92.11
48053;BME280;33824;51.600;5.718;2023-03-26T16:03:43;100317.97;;;8.81;91.49
48053;BME280;33824;51.600;5.718;2023-03-26T16:06:02;100330.63;;;8.79;92.21
48053;BME280;33824;51.600;5.718;2023-03-26T16:08:49;100326.50;;;8.68;89.91
48053;BME280;33824;51.600;5.718;2023-03-26T16:11:52;100338.00;;;8.60;89.00
48053;BME280;33824;51.600;5.718;2023-03-26T16:14:21;100345.28;;;8.75;89.64
48053;BME280;33824;51.600;5.718;2023-03-26T16:16:58;100353.88;;;8.77;90.09
48053;BME280;33824;51.600;5.718;2023-03-26T16:19:55;100354.59;;;8.71;90.01
48053;BME280;33824;51.600;5.718;2023-03-26T16:22:40;100349.88;;;8.81;89.80
48053;BME280;33824;51.600;5.718;2023-03-26T16:25:30;100352.41;;;8.74;89.71
48053;BME280;33824;51.600;5.718;2023-03-26T16:30:41;100372.94;;;8.88;90.55
48053;BME280;33824;51.600;5.718;2023-03-26T16:33:15;100382.78;;;8.80;90.29
48053;BME280;33824;51.600;5.718;2023-03-26T16:35:58;100378.47;;;8.79;89.40
48053;BME280;33824;51.600;5.718;2023-03-26T16:38:45;100382.56;;;8.58;88.56
48053;BME280;33824;51.600;5.718;2023-03-26T16:41:21;100394.00;;;8.67;89.52
48053;BME280;33824;51.600;5.718;2023-03-26T16:44:03;100403.31;;;8.63;89.34